createdAt,value
2019-03-26T00:00:54.627Z,3.77
2019-03-26T00:03:21.226Z,3.87
2019-03-26T00:05:47.809Z,3.90
2019-03-26T00:08:14.394Z,4.10
2019-03-26T00:10:41.136Z,4.40
2019-03-26T00:13:07.637Z,3.67
2019-03-26T00:15:34.204Z,4.17
2019-03-26T00:18:00.529Z,4.60
2019-03-26T00:20:27.166Z,3.63
2019-03-26T00:22:53.571Z,4.53
2019-03-26T00:25:20.135Z,3.73
2019-03-26T00:27:46.751Z,3.80
2019-03-26T00:30:13.895Z,4.03
2019-03-26T00:32:40.420Z,3.83
2019-03-26T00:35:07.266Z,3.70
2019-03-26T00:37:33.575Z,4.27
2019-03-26T00:40:00.004Z,4.03
2019-03-26T00:42:26.373Z,3.90
2019-03-26T00:44:52.815Z,4.43
2019-03-26T00:47:19.196Z,4.37
2019-03-26T00:49:45.556Z,4.37
2019-03-26T00:52:12.275Z,4.13
2019-03-26T00:54:38.861Z,3.77
2019-03-26T00:57:05.491Z,4.10
2019-03-26T00:59:31.892Z,3.83
2019-03-26T01:01:58.408Z,3.97
2019-03-26T01:04:32.680Z,4.23
2019-03-26T01:06:53.558Z,4.00
2019-03-26T01:09:19.957Z,4.40
2019-03-26T01:11:46.381Z,4.40
2019-03-26T01:14:12.867Z,4.00
2019-03-26T01:16:39.339Z,3.80
2019-03-26T01:19:05.819Z,3.53
2019-03-26T01:21:32.356Z,4.23
2019-03-26T01:23:58.835Z,3.90
2019-03-26T01:26:25.351Z,4.00
2019-03-26T01:28:51.910Z,3.63
2019-03-26T01:31:18.454Z,3.87
2019-03-26T01:33:44.986Z,4.20
2019-03-26T01:36:11.369Z,3.80
2019-03-26T01:38:37.815Z,3.77
2019-03-26T01:41:04.465Z,3.87
2019-03-26T01:43:30.845Z,4.10
2019-03-26T01:45:57.360Z,4.00
2019-03-26T01:48:23.864Z,3.57
2019-03-26T01:50:50.217Z,3.60
2019-03-26T01:53:16.798Z,3.63
2019-03-26T01:55:43.217Z,3.83
2019-03-26T01:58:09.740Z,4.33
2019-03-26T02:00:36.655Z,3.40
2019-03-26T02:03:03.182Z,3.23
2019-03-26T02:05:29.506Z,3.00
2019-03-26T02:07:56.135Z,2.97
2019-03-26T02:10:22.428Z,2.90
2019-03-26T02:12:48.908Z,3.23
2019-03-26T02:15:25.981Z,3.20
2019-03-26T02:17:52.301Z,3.10
2019-03-26T02:20:18.800Z,2.80
2019-03-26T02:22:45.247Z,3.40
2019-03-26T02:25:11.925Z,3.30
2019-03-26T02:27:38.323Z,2.83
2019-03-26T02:30:05.338Z,3.33
2019-03-26T02:32:31.622Z,3.87
2019-03-26T02:34:58.037Z,3.60
2019-03-26T02:37:24.311Z,3.03
2019-03-26T02:39:50.724Z,3.30
2019-03-26T02:42:17.236Z,3.60
2019-03-26T02:44:43.594Z,3.13
2019-03-26T02:47:09.987Z,3.00
2019-03-26T02:49:36.441Z,3.00
2019-03-26T02:52:02.935Z,2.73
2019-03-26T02:54:29.269Z,2.70
2019-03-26T02:56:55.599Z,3.30
2019-03-26T02:59:22.180Z,3.03
2019-03-26T03:01:48.601Z,3.47
2019-03-26T03:04:15.214Z,2.47
2019-03-26T03:06:41.619Z,2.90
2019-03-26T03:09:08.139Z,3.33
2019-03-26T03:11:34.556Z,2.70
2019-03-26T03:14:01.585Z,3.43
2019-03-26T03:16:27.891Z,2.93
2019-03-26T03:19:16.053Z,2.90
2019-03-26T03:21:42.476Z,2.63
2019-03-26T03:24:08.873Z,2.93
2019-03-26T03:26:35.431Z,2.93
2019-03-26T03:29:01.895Z,2.20
2019-03-26T03:31:28.543Z,3.17
2019-03-26T03:33:55.034Z,3.03
2019-03-26T03:36:21.424Z,3.07
2019-03-26T03:38:47.726Z,2.70
2019-03-26T03:41:14.166Z,2.93
2019-03-26T03:43:40.553Z,2.63
2019-03-26T03:46:07.156Z,2.37
2019-03-26T03:48:34.561Z,2.27
2019-03-26T03:51:03.331Z,2.97
2019-03-26T03:53:30.094Z,2.10
2019-03-26T03:55:58.278Z,2.73
2019-03-26T03:58:28.203Z,2.30
2019-03-26T04:00:54.628Z,3.17
2019-03-26T04:03:21.151Z,2.53
2019-03-26T04:05:47.659Z,2.53
2019-03-26T04:08:14.322Z,3.30
2019-03-26T04:10:40.720Z,3.40
2019-03-26T04:13:07.485Z,2.60
2019-03-26T04:15:35.203Z,3.90
2019-03-26T04:18:02.345Z,3.37
2019-03-26T04:20:28.838Z,3.13
2019-03-26T04:22:55.371Z,3.40
2019-03-26T04:25:21.926Z,2.70
2019-03-26T04:27:48.477Z,3.20
2019-03-26T04:30:27.331Z,3.03
2019-03-26T04:32:53.777Z,2.90
2019-03-26T04:35:20.052Z,2.53
2019-03-26T04:37:46.381Z,3.67
2019-03-26T04:40:12.915Z,3.00
2019-03-26T04:42:39.293Z,2.93
2019-03-26T04:45:06.139Z,3.07
2019-03-26T04:47:32.552Z,3.60
2019-03-26T04:49:58.885Z,3.23
2019-03-26T04:52:25.275Z,2.87
2019-03-26T04:54:51.701Z,2.87
2019-03-26T04:57:18.193Z,3.10
2019-03-26T04:59:44.508Z,3.10
2019-03-26T05:02:10.921Z,3.97
2019-03-26T05:04:37.458Z,3.60
2019-03-26T05:07:03.960Z,3.33
2019-03-26T05:09:30.597Z,4.03
2019-03-26T05:11:57.011Z,3.93
2019-03-26T05:14:23.442Z,3.23
2019-03-26T05:16:49.861Z,3.40
2019-03-26T05:19:16.361Z,3.50
2019-03-26T05:21:42.691Z,3.40
2019-03-26T05:24:09.270Z,3.43
2019-03-26T05:26:35.589Z,3.73
2019-03-26T05:29:02.056Z,3.30
2019-03-26T05:31:28.609Z,7.03
2019-03-26T05:33:54.919Z,4.00
2019-03-26T05:36:21.245Z,3.60
2019-03-26T05:38:47.548Z,3.27
2019-03-26T05:41:14.070Z,3.63
2019-03-26T05:43:40.415Z,3.23
2019-03-26T05:46:06.835Z,3.80
2019-03-26T05:48:33.246Z,3.27
2019-03-26T05:50:59.591Z,4.03
2019-03-26T05:53:26.097Z,3.53
2019-03-26T05:55:52.620Z,3.87
2019-03-26T05:58:19.134Z,4.20
2019-03-26T06:00:45.561Z,3.67
2019-03-26T06:03:12.130Z,4.30
2019-03-26T06:05:38.817Z,4.50
2019-03-26T06:08:05.363Z,3.60
2019-03-26T06:10:31.698Z,4.17
2019-03-26T06:12:58.149Z,4.43
2019-03-26T06:15:24.508Z,3.30
2019-03-26T06:17:50.958Z,3.97
2019-03-26T06:20:17.560Z,4.10
2019-03-26T06:22:44.229Z,4.07
2019-03-26T06:25:11.061Z,4.00
2019-03-26T06:27:37.587Z,3.90
2019-03-26T06:30:07.431Z,4.13
2019-03-26T06:32:33.877Z,3.93
2019-03-26T06:35:00.665Z,3.87
2019-03-26T06:37:27.307Z,3.70
2019-03-26T06:39:53.810Z,3.97
2019-03-26T06:42:20.162Z,4.20
2019-03-26T06:44:46.450Z,4.40
2019-03-26T06:47:12.987Z,3.70
2019-03-26T06:49:39.315Z,3.80
2019-03-26T06:52:05.990Z,4.07
2019-03-26T06:54:32.433Z,3.57
2019-03-26T06:56:58.981Z,3.87
2019-03-26T06:59:25.525Z,3.50
2019-03-26T07:01:52.396Z,3.80
2019-03-26T07:04:18.917Z,3.70
2019-03-26T07:06:45.317Z,3.73
2019-03-26T07:09:11.825Z,4.27
2019-03-26T07:11:38.152Z,3.23
2019-03-26T07:14:04.706Z,3.83
2019-03-26T07:16:31.108Z,3.33
2019-03-26T07:18:57.601Z,3.40
2019-03-26T07:21:24.227Z,3.47
2019-03-26T07:23:50.956Z,3.17
2019-03-26T07:26:17.885Z,3.93
2019-03-26T07:28:44.414Z,3.77
2019-03-26T07:31:10.893Z,3.03
2019-03-26T07:33:37.433Z,3.90
2019-03-26T07:36:03.948Z,4.03
2019-03-26T07:38:30.554Z,3.23
2019-03-26T07:40:57.108Z,3.90
2019-03-26T07:43:23.629Z,3.67
2019-03-26T07:45:50.182Z,3.33
2019-03-26T07:48:16.627Z,3.43
2019-03-26T07:50:43.271Z,4.47
2019-03-26T07:53:09.905Z,3.30
2019-03-26T07:55:36.555Z,3.03
2019-03-26T07:58:03.288Z,4.27
2019-03-26T08:00:33.818Z,3.27
2019-03-26T08:03:00.317Z,3.47
2019-03-26T08:05:30.003Z,3.90
2019-03-26T08:07:58.491Z,3.60
2019-03-26T08:10:23.662Z,3.60
2019-03-26T08:12:50.086Z,3.83
2019-03-26T08:15:16.576Z,3.47
2019-03-26T08:17:45.361Z,3.43
2019-03-26T08:20:12.693Z,3.80
2019-03-26T08:22:39.395Z,3.73
2019-03-26T08:25:06.897Z,3.60
2019-03-26T08:27:33.503Z,3.43
2019-03-26T08:29:59.926Z,3.60
2019-03-26T08:32:26.337Z,3.27
2019-03-26T08:34:52.882Z,3.10
2019-03-26T08:37:19.418Z,3.27
2019-03-26T08:39:46.056Z,3.57
2019-03-26T08:42:12.595Z,3.60
2019-03-26T08:44:39.226Z,3.40
2019-03-26T08:47:05.810Z,4.03
2019-03-26T08:49:32.220Z,3.73
2019-03-26T08:51:58.861Z,3.80
2019-03-26T08:54:25.391Z,3.83
2019-03-26T08:56:52.008Z,3.93
2019-03-26T08:59:18.471Z,7.17
2019-03-26T09:01:44.779Z,4.50
2019-03-26T09:04:11.136Z,4.07
2019-03-26T09:06:37.791Z,3.60
2019-03-26T09:09:06.917Z,3.70
2019-03-26T09:11:33.431Z,3.77
2019-03-26T09:13:59.797Z,3.97
2019-03-26T09:16:26.374Z,4.17
2019-03-26T09:18:52.958Z,4.30
2019-03-26T09:21:19.505Z,3.37
2019-03-26T09:23:46.118Z,4.13
2019-03-26T09:26:12.650Z,4.33
2019-03-26T09:28:39.074Z,4.00
2019-03-26T09:31:05.694Z,4.00
2019-03-26T09:33:32.203Z,4.43
2019-03-26T09:35:58.585Z,3.60
2019-03-26T09:38:38.075Z,3.63
2019-03-26T09:40:53.314Z,9.50
2019-03-26T09:43:19.644Z,4.40
2019-03-26T09:45:46.183Z,4.33
2019-03-26T09:48:12.770Z,4.43
2019-03-26T09:50:39.332Z,3.50
2019-03-26T09:53:05.852Z,4.43
2019-03-26T09:55:32.525Z,3.90
2019-03-26T09:57:59.110Z,4.20
2019-03-26T10:00:25.892Z,4.27
2019-03-26T10:02:52.671Z,3.97
2019-03-26T10:05:19.390Z,3.57
2019-03-26T10:07:45.991Z,3.30
2019-03-26T10:10:13.559Z,3.80
2019-03-26T10:12:40.073Z,3.97
2019-03-26T10:15:06.964Z,3.60
2019-03-26T10:17:33.424Z,3.60
2019-03-26T10:19:59.744Z,4.13
2019-03-26T10:22:26.165Z,3.03
2019-03-26T10:24:52.596Z,3.33
2019-03-26T10:27:19.119Z,3.50
2019-03-26T10:29:45.434Z,3.13
2019-03-26T10:32:12.096Z,4.33
2019-03-26T10:34:38.566Z,3.93
2019-03-26T10:37:05.298Z,4.60
2019-03-26T10:39:31.677Z,4.07
2019-03-26T10:41:58.333Z,3.37
2019-03-26T10:44:24.963Z,3.97
2019-03-26T10:46:51.483Z,3.80
2019-03-26T10:49:17.898Z,4.03
2019-03-26T10:51:44.510Z,3.13
2019-03-26T10:54:10.959Z,3.57
2019-03-26T10:56:37.725Z,3.23
2019-03-26T10:59:04.475Z,3.63
2019-03-26T11:01:31.024Z,4.03
2019-03-26T11:03:57.667Z,4.70
2019-03-26T11:06:24.297Z,4.13
2019-03-26T11:08:50.804Z,3.90
2019-03-26T11:11:17.248Z,3.70
2019-03-26T11:13:43.800Z,4.00
2019-03-26T11:16:10.298Z,3.87
2019-03-26T11:18:36.924Z,4.23
2019-03-26T11:21:03.527Z,3.73
2019-03-26T11:23:30.259Z,4.00
2019-03-26T11:25:56.711Z,3.47
2019-03-26T11:28:23.464Z,3.10
2019-03-26T11:30:49.882Z,4.07
2019-03-26T11:33:16.424Z,3.90
2019-03-26T11:35:42.928Z,3.57
2019-03-26T11:38:09.624Z,3.93
2019-03-26T11:40:35.918Z,3.27
2019-03-26T11:43:02.633Z,3.70
2019-03-26T11:45:29.148Z,3.97
2019-03-26T11:47:55.683Z,3.57
2019-03-26T11:50:22.403Z,3.53
2019-03-26T11:52:49.092Z,3.37
2019-03-26T11:55:15.816Z,3.27
2019-03-26T11:57:42.302Z,3.00
2019-03-26T12:00:12.327Z,3.10
2019-03-26T12:02:38.947Z,2.67
2019-03-26T12:05:07.386Z,2.77
2019-03-26T12:07:35.000Z,3.20
2019-03-26T12:10:03.020Z,3.27
2019-03-26T12:12:29.615Z,3.17
2019-03-26T12:14:56.061Z,3.67
2019-03-26T12:17:22.673Z,3.50
2019-03-26T12:19:49.076Z,3.93
2019-03-26T12:22:15.606Z,3.47
2019-03-26T12:24:42.047Z,3.40
2019-03-26T12:27:08.573Z,3.37
2019-03-26T12:29:35.014Z,3.63
2019-03-26T12:32:01.418Z,3.27
2019-03-26T12:34:27.979Z,3.50
2019-03-26T12:36:54.462Z,4.47
2019-03-26T12:39:20.936Z,4.10
2019-03-26T12:41:47.569Z,3.73
2019-03-26T12:44:14.298Z,3.60
2019-03-26T12:46:40.726Z,3.47
2019-03-26T12:49:07.379Z,3.40
2019-03-26T12:51:33.971Z,3.70
2019-03-26T12:54:00.417Z,4.40
2019-03-26T12:56:26.878Z,4.20
2019-03-26T12:58:53.509Z,3.83
2019-03-26T13:01:20.058Z,4.30
2019-03-26T13:03:46.642Z,3.63
2019-03-26T13:06:13.202Z,3.43
2019-03-26T13:08:39.790Z,3.63
2019-03-26T13:11:06.347Z,3.17
2019-03-26T13:13:32.890Z,2.93
2019-03-26T13:15:59.333Z,3.30
2019-03-26T13:18:25.736Z,3.60
2019-03-26T13:20:52.081Z,3.23
2019-03-26T13:23:18.519Z,2.83
2019-03-26T13:25:45.062Z,3.53
2019-03-26T13:28:11.703Z,3.10
2019-03-26T13:30:38.250Z,3.33
2019-03-26T13:33:04.909Z,3.37
2019-03-26T13:35:31.599Z,3.60
2019-03-26T13:37:58.179Z,2.73
2019-03-26T13:40:27.366Z,3.23
2019-03-26T13:42:53.472Z,3.00
2019-03-26T13:45:19.882Z,3.00
2019-03-26T13:47:46.680Z,3.83
2019-03-26T13:50:13.890Z,3.90
2019-03-26T13:52:40.404Z,4.00
2019-03-26T13:55:07.958Z,3.37
2019-03-26T13:57:34.520Z,4.27
2019-03-26T14:00:01.208Z,3.77
2019-03-26T14:02:27.855Z,4.20
2019-03-26T14:04:54.453Z,3.97
2019-03-26T14:07:20.944Z,4.33
2019-03-26T14:09:47.576Z,3.70
2019-03-26T14:12:14.272Z,3.67
2019-03-26T14:14:40.956Z,4.00
2019-03-26T14:17:07.549Z,3.80
2019-03-26T14:19:34.265Z,4.27
2019-03-26T14:22:00.845Z,3.67
2019-03-26T14:24:27.418Z,3.20
2019-03-26T14:26:54.050Z,3.30
2019-03-26T14:29:20.642Z,3.53
2019-03-26T14:31:47.239Z,3.00
2019-03-26T14:34:13.815Z,4.17
2019-03-26T14:36:40.325Z,4.13
2019-03-26T14:39:08.619Z,4.43
2019-03-26T14:41:35.219Z,3.83
2019-03-26T14:44:01.829Z,5.00
2019-03-26T14:46:28.374Z,4.67
2019-03-26T14:48:54.965Z,4.47
2019-03-26T14:51:23.053Z,4.47
2019-03-26T14:53:50.096Z,4.27
2019-03-26T14:56:16.813Z,4.57
2019-03-26T14:58:43.453Z,4.63
2019-03-26T15:01:10.080Z,4.83
2019-03-26T15:03:36.600Z,5.13
2019-03-26T15:06:04.669Z,4.70
2019-03-26T15:08:31.151Z,4.13
2019-03-26T15:11:07.451Z,4.30
2019-03-26T15:13:26.581Z,4.07
2019-03-26T15:15:53.008Z,3.70
2019-03-26T15:18:19.713Z,3.67
2019-03-26T15:20:46.116Z,4.60
2019-03-26T15:23:12.660Z,3.70
2019-03-26T15:25:39.273Z,3.73
2019-03-26T15:28:05.954Z,3.60
2019-03-26T15:30:32.524Z,3.60
2019-03-26T15:32:59.169Z,3.50
2019-03-26T15:35:25.690Z,3.83
2019-03-26T15:37:52.329Z,3.70
2019-03-26T15:40:19.459Z,3.50
2019-03-26T15:42:46.138Z,4.03
2019-03-26T15:45:14.287Z,3.97
2019-03-26T15:47:41.039Z,4.03
2019-03-26T15:50:08.354Z,3.43
2019-03-26T15:52:35.150Z,4.53
2019-03-26T15:55:01.848Z,4.10
2019-03-26T15:57:28.424Z,3.80
2019-03-26T15:59:55.167Z,3.73
2019-03-26T16:02:21.670Z,3.53
2019-03-26T16:04:48.329Z,3.93
2019-03-26T16:07:14.934Z,3.90
2019-03-26T16:09:41.351Z,3.67
2019-03-26T16:12:08.045Z,3.63
2019-03-26T16:14:34.565Z,3.23
2019-03-26T16:17:01.173Z,3.43
2019-03-26T16:19:32.886Z,4.00
2019-03-26T16:21:56.612Z,3.33
2019-03-26T16:24:23.280Z,3.70
2019-03-26T16:26:49.963Z,3.17
2019-03-26T16:29:16.764Z,3.60
2019-03-26T16:31:43.375Z,3.93
2019-03-26T16:34:10.230Z,3.50
2019-03-26T16:36:36.907Z,3.37
2019-03-26T16:39:06.324Z,3.57
2019-03-26T16:41:33.030Z,3.23
2019-03-26T16:43:59.676Z,3.70
2019-03-26T16:46:26.259Z,3.97
2019-03-26T16:48:52.736Z,3.77
2019-03-26T16:51:19.652Z,3.40
2019-03-26T16:53:46.359Z,3.33
2019-03-26T16:56:13.066Z,3.90
2019-03-26T16:58:39.749Z,3.50
2019-03-26T17:01:06.389Z,3.63
2019-03-26T17:03:32.956Z,3.80
2019-03-26T17:05:59.701Z,3.97
2019-03-26T17:08:26.527Z,3.20
2019-03-26T17:10:54.031Z,4.07
2019-03-26T17:13:20.686Z,4.13
2019-03-26T17:15:47.316Z,3.80
2019-03-26T17:18:14.047Z,3.50
2019-03-26T17:20:40.594Z,3.80
2019-03-26T17:23:07.274Z,3.73
2019-03-26T17:25:33.968Z,4.00
2019-03-26T17:28:00.689Z,3.63
2019-03-26T17:30:27.243Z,3.63
2019-03-26T17:32:53.798Z,4.53
2019-03-26T17:35:20.470Z,3.80
2019-03-26T17:37:58.848Z,3.97
2019-03-26T17:40:15.684Z,4.00
2019-03-26T17:42:42.469Z,3.57
2019-03-26T17:45:09.305Z,4.07
2019-03-26T17:47:36.013Z,3.57
2019-03-26T17:50:05.453Z,4.77
2019-03-26T17:52:32.283Z,4.53
2019-03-26T17:54:58.883Z,5.37
2019-03-26T17:57:25.560Z,5.47
2019-03-26T17:59:51.890Z,4.67
2019-03-26T18:02:18.820Z,5.27
2019-03-26T18:04:45.436Z,3.87
2019-03-26T18:07:12.063Z,4.20
2019-03-26T18:09:38.725Z,4.30
2019-03-26T18:12:05.425Z,4.33
2019-03-26T18:14:32.434Z,4.27
2019-03-26T18:16:59.221Z,3.67
2019-03-26T18:19:25.915Z,4.13
2019-03-26T18:21:52.763Z,4.73
2019-03-26T18:24:19.491Z,4.53
2019-03-26T18:26:46.204Z,4.47
2019-03-26T18:29:12.909Z,4.70
2019-03-26T18:31:39.619Z,5.17
2019-03-26T18:34:06.335Z,5.33
2019-03-26T18:36:33.017Z,5.37
2019-03-26T18:38:59.826Z,5.67
2019-03-26T18:41:26.488Z,5.43
2019-03-26T18:43:53.261Z,5.87
2019-03-26T18:46:20.086Z,6.40
2019-03-26T18:48:46.776Z,5.43
2019-03-26T18:51:13.622Z,5.70
2019-03-26T18:53:40.160Z,5.83
2019-03-26T18:56:06.778Z,5.20
2019-03-26T18:58:33.327Z,5.67
2019-03-26T19:00:59.894Z,5.57
2019-03-26T19:03:26.625Z,5.53
2019-03-26T19:05:53.150Z,5.30
2019-03-26T19:08:19.654Z,5.93
2019-03-26T19:10:46.174Z,4.63
2019-03-26T19:13:19.340Z,5.03
2019-03-26T19:15:41.624Z,4.50
2019-03-26T19:18:08.300Z,4.33
2019-03-26T19:20:34.886Z,4.63
2019-03-26T19:23:01.625Z,4.50
2019-03-26T19:25:28.514Z,5.03
2019-03-26T19:27:55.147Z,4.57
2019-03-26T19:30:21.743Z,4.67
2019-03-26T19:32:48.621Z,5.13
2019-03-26T19:35:15.214Z,4.60
2019-03-26T19:37:41.883Z,5.00
2019-03-26T19:40:08.725Z,5.23
2019-03-26T19:42:36.638Z,4.70
2019-03-26T19:45:04.366Z,5.67
2019-03-26T19:47:31.245Z,5.17
2019-03-26T19:49:58.041Z,4.90
2019-03-26T19:52:24.873Z,5.27
2019-03-26T19:54:51.605Z,4.90
2019-03-26T19:57:18.466Z,5.87
2019-03-26T19:59:45.129Z,5.23
2019-03-26T20:02:12.076Z,4.90
2019-03-26T20:04:38.740Z,5.93
2019-03-26T20:07:05.589Z,5.40
2019-03-26T20:09:34.191Z,5.80
2019-03-26T20:12:01.012Z,5.63
2019-03-26T20:14:27.839Z,4.90
2019-03-26T20:16:54.661Z,6.13
2019-03-26T20:19:21.587Z,5.07
2019-03-26T20:21:50.379Z,5.70
2019-03-26T20:24:17.085Z,5.40
2019-03-26T20:26:43.951Z,4.83
2019-03-26T20:29:10.828Z,5.20
2019-03-26T20:31:37.518Z,5.73
2019-03-26T20:34:04.315Z,5.27
2019-03-26T20:36:31.114Z,5.43
2019-03-26T20:38:57.951Z,5.27
2019-03-26T20:41:24.683Z,5.50
2019-03-26T20:43:51.448Z,5.37
2019-03-26T20:46:18.130Z,4.77
2019-03-26T20:48:45.032Z,6.00
2019-03-26T20:51:11.899Z,6.63
2019-03-26T20:53:38.844Z,5.63
2019-03-26T20:56:05.585Z,5.87
2019-03-26T20:58:33.212Z,5.73
2019-03-26T21:00:59.964Z,5.53
2019-03-26T21:03:26.924Z,5.70
2019-03-26T21:05:53.945Z,5.43
2019-03-26T21:08:20.633Z,5.67
2019-03-26T21:10:47.151Z,6.27
2019-03-26T21:13:14.062Z,5.23
2019-03-26T21:15:42.690Z,6.33
2019-03-26T21:18:09.521Z,5.07
2019-03-26T21:20:36.154Z,5.70
2019-03-26T21:23:02.986Z,6.40
2019-03-26T21:25:29.695Z,6.30
2019-03-26T21:27:56.415Z,5.83
2019-03-26T21:30:23.269Z,5.53
2019-03-26T21:32:49.965Z,5.87
2019-03-26T21:35:16.658Z,6.13
2019-03-26T21:37:43.589Z,5.83
2019-03-26T21:40:11.004Z,5.40
2019-03-26T21:42:37.764Z,6.87
2019-03-26T21:45:08.015Z,5.90
2019-03-26T21:47:34.583Z,5.77
2019-03-26T21:50:01.660Z,6.67
2019-03-26T21:52:28.235Z,6.07
2019-03-26T21:54:54.798Z,6.50
2019-03-26T21:57:21.542Z,6.50
2019-03-26T21:59:48.356Z,6.23
2019-03-26T22:02:15.041Z,6.17
2019-03-26T22:04:41.857Z,6.03
2019-03-26T22:07:08.433Z,5.27
2019-03-26T22:09:38.001Z,6.20
2019-03-26T22:12:04.826Z,5.90
2019-03-26T22:14:31.294Z,6.53
2019-03-26T22:16:57.937Z,6.17
2019-03-26T22:19:28.900Z,6.70
2019-03-26T22:21:53.009Z,6.77
2019-03-26T22:24:19.623Z,7.23
2019-03-26T22:26:46.300Z,7.03
2019-03-26T22:29:12.923Z,6.23
2019-03-26T22:31:39.500Z,6.77
2019-03-26T22:34:06.055Z,6.00
2019-03-26T22:36:34.587Z,5.90
2019-03-26T22:39:01.360Z,6.77
2019-03-26T22:41:27.905Z,6.90
2019-03-26T22:43:55.294Z,6.67
2019-03-26T22:46:21.856Z,6.70
2019-03-26T22:48:48.236Z,6.97
2019-03-26T22:51:14.996Z,6.67
2019-03-26T22:53:41.638Z,7.80
2019-03-26T22:56:08.284Z,7.67
2019-03-26T22:58:34.803Z,6.87
2019-03-26T23:01:01.495Z,8.07
2019-03-26T23:03:28.265Z,6.87
2019-03-26T23:05:54.742Z,7.23
2019-03-26T23:08:21.328Z,6.77
2019-03-26T23:40:20.102Z,6.73
2019-03-26T23:42:46.569Z,6.83
2019-03-26T23:45:13.604Z,6.63
2019-03-26T23:47:40.220Z,6.57
2019-03-26T23:50:08.051Z,5.77
2019-03-26T23:52:34.583Z,5.90
2019-03-26T23:55:01.199Z,6.30
2019-03-26T23:57:27.453Z,5.70
2019-03-26T23:59:54.020Z,7.23
